Accueil
METAR-TAF:

METAR-TAF

Aéroports :

Thoothukudi, Inde

latitude: 8-43-27N, longitude: 78-01-33E, altitude: 39 m

Observation

Le bulletin a été fait il y a 20 minutes, à 01:30 UTC
Vent calme
Température 24°C
Humidité 94%
Pression 1015 hPa
Visibilité: 4000 m
Nuages fragmentés à une hauteur de 1600 ft
Ciel couvert à une hauteur de 8000 ft
brume

METAR: VOTK 220130Z 00000KT 4000 BR BKN016 OVC080 24/23 Q1015 TEMPO 5000 BR

Heure: 07:20 (01:50 UTC)


TAF: absent

Observations et prévisions météorologiques de plus de 4000 aéroports (messages METAR et TAF).

Les stations disponibles sont représentées par des disques jaunes et rouges sur la carte.

Passer la souris dessus pour voir le nom de la station.

Cliquer dessus pour voir les observations et prévisions météorologiques.

Pour changer de carte: cliquez sur les boutons verts avec une croix noire pour zoomer, sur le bouton vert avec un tiret pour effectuer un zoom arrière, ou sur les flèches vertes pour les cartes adjacentes.


METAR-TAF: